createdAt,value
2022-09-12T00:02:26.467Z,10.96
2022-09-12T00:05:13.408Z,10.54
2022-09-12T00:08:00.950Z,10.53
2022-09-12T00:10:47.875Z,10.46
2022-09-12T00:13:38.384Z,10.44
2022-09-12T00:16:30.858Z,10.52
2022-09-12T00:19:18.821Z,11.17
2022-09-12T00:22:05.746Z,11.59
2022-09-12T00:24:52.641Z,11.58
2022-09-12T00:27:39.564Z,11.56
2022-09-12T00:30:26.494Z,11.83
2022-09-12T00:33:15.084Z,11.42
2022-09-12T00:36:10.449Z,11.39
2022-09-12T00:38:57.507Z,11.40
2022-09-12T00:41:44.902Z,11.72
2022-09-12T00:44:31.761Z,11.11
2022-09-12T00:47:37.914Z,10.82
2022-09-12T00:50:25.854Z,10.48
2022-09-12T00:53:13.044Z,10.72
2022-09-12T00:56:00.392Z,10.77
2022-09-12T00:59:00.264Z,10.77
2022-09-12T01:01:50.665Z,10.94
2022-09-12T01:04:40.651Z,10.67
2022-09-12T01:07:28.299Z,10.45
2022-09-12T01:10:15.913Z,10.07
2022-09-12T01:13:05.458Z,10.16
2022-09-12T01:15:52.788Z,10.24
2022-09-12T01:18:49.029Z,10.45
2022-09-12T01:22:06.079Z,10.43
2022-09-12T01:25:21.014Z,10.37
2022-09-12T01:28:07.887Z,10.33
2022-09-12T01:31:20.794Z,10.46
2022-09-12T01:34:18.051Z,10.19
2022-09-12T01:37:15.549Z,10.01
2022-09-12T01:40:21.717Z,9.88
2022-09-12T01:43:31.929Z,9.96
2022-09-12T01:46:29.670Z,10.04
2022-09-12T01:49:28.855Z,10.27
2022-09-12T01:52:25.829Z,10.48
2022-09-12T01:55:21.081Z,10.61
2022-09-12T01:58:38.108Z,10.16
2022-09-12T02:01:29.763Z,9.99
2022-09-12T02:04:24.104Z,10.24
2022-09-12T02:07:20.481Z,10.52
2022-09-12T02:10:18.101Z,10.55
2022-09-12T02:13:15.854Z,10.54
2022-09-12T02:16:22.590Z,10.69
2022-09-12T02:19:15.863Z,9.99
2022-09-12T02:22:05.184Z,10.03
2022-09-12T02:24:56.970Z,10.13
2022-09-12T02:27:55.309Z,10.09
2022-09-12T02:30:52.325Z,10.08
2022-09-12T02:33:48.957Z,9.80
2022-09-12T02:36:57.760Z,9.83
2022-09-12T02:39:45.604Z,9.31
2022-09-12T02:42:32.969Z,9.50
2022-09-12T02:45:20.433Z,9.75
2022-09-12T02:48:13.706Z,9.83
2022-09-12T02:51:02.533Z,9.69
2022-09-12T02:53:49.670Z,9.73
2022-09-12T02:56:41.137Z,9.69
2022-09-12T02:59:28.501Z,9.70
2022-09-12T03:02:32.364Z,9.66
2022-09-12T03:05:27.126Z,9.59
2022-09-12T03:08:28.872Z,9.79
2022-09-12T03:11:37.243Z,9.76
2022-09-12T03:14:35.702Z,9.64
2022-09-12T03:17:40.043Z,9.55
2022-09-12T03:20:52.217Z,9.78
2022-09-12T03:23:51.561Z,9.83
2022-09-12T03:26:47.641Z,9.61
2022-09-12T03:29:36.981Z,9.56
2022-09-12T03:32:43.896Z,9.43
2022-09-12T03:35:30.934Z,9.02
2022-09-12T03:38:18.637Z,8.80
2022-09-12T03:41:05.732Z,8.77
2022-09-12T03:43:52.776Z,8.76
2022-09-12T03:46:39.694Z,9.01
2022-09-12T03:49:26.653Z,9.03
2022-09-12T03:52:13.612Z,9.09
2022-09-12T03:55:00.645Z,9.23
2022-09-12T03:57:47.543Z,8.90
2022-09-12T04:00:34.426Z,8.93
2022-09-12T04:03:21.307Z,8.74
2022-09-12T04:06:11.036Z,8.99
2022-09-12T04:08:58.632Z,8.88
2022-09-12T04:11:45.534Z,8.78
2022-09-12T04:14:32.548Z,9.02
2022-09-12T04:17:19.433Z,9.38
2022-09-12T04:20:07.000Z,9.14
2022-09-12T04:22:53.955Z,9.16
2022-09-12T04:25:40.812Z,9.03
2022-09-12T04:28:29.148Z,9.00
2022-09-12T04:31:20.782Z,9.04
2022-09-12T04:34:07.829Z,8.97
2022-09-12T04:36:54.720Z,9.10
2022-09-12T04:39:41.676Z,9.10
2022-09-12T04:42:29.925Z,9.32
2022-09-12T04:45:16.940Z,9.19
2022-09-12T04:48:04.001Z,9.15
2022-09-12T04:50:51.029Z,9.15
2022-09-12T04:53:38.627Z,9.33
2022-09-12T04:56:26.617Z,9.46
2022-09-12T04:59:15.776Z,9.61
2022-09-12T05:02:02.770Z,9.44
2022-09-12T05:04:49.715Z,9.30
2022-09-12T05:07:36.758Z,9.25
2022-09-12T05:10:23.951Z,9.37
2022-09-12T05:13:10.847Z,9.54
2022-09-12T05:15:59.728Z,9.36
2022-09-12T05:18:47.326Z,9.40
2022-09-12T05:21:34.511Z,9.58
2022-09-12T05:24:21.705Z,9.68
2022-09-12T05:27:08.766Z,9.70
2022-09-12T05:29:55.748Z,9.73
2022-09-12T05:32:42.638Z,9.81
2022-09-12T05:35:29.546Z,9.66
2022-09-12T05:38:16.623Z,9.87
2022-09-12T05:41:17.071Z,9.77
2022-09-12T05:44:06.817Z,9.73
2022-09-12T05:46:53.849Z,9.93
2022-09-12T05:49:40.935Z,10.00
2022-09-12T05:52:27.924Z,10.02
2022-09-12T05:55:14.948Z,10.05
2022-09-12T05:58:01.974Z,10.40
2022-09-12T06:00:50.197Z,10.83
2022-09-12T06:03:41.333Z,10.51
2022-09-12T06:06:30.247Z,10.70
2022-09-12T06:09:17.755Z,11.01
2022-09-12T06:12:05.081Z,10.57
2022-09-12T06:14:52.434Z,10.99
2022-09-12T06:17:39.688Z,11.65
2022-09-12T06:20:26.640Z,12.01
2022-09-12T06:23:13.631Z,12.36
2022-09-12T06:26:00.871Z,12.42
2022-09-12T06:28:48.060Z,13.78
2022-09-12T06:31:37.219Z,13.50
2022-09-12T06:34:24.494Z,13.21
2022-09-12T06:37:11.490Z,13.35
2022-09-12T06:39:58.891Z,13.44
2022-09-12T06:42:45.840Z,13.54
2022-09-12T06:45:32.717Z,13.10
2022-09-12T06:48:20.155Z,13.62
2022-09-12T06:51:11.799Z,12.89
2022-09-12T06:53:59.035Z,12.59
2022-09-12T06:56:46.108Z,13.34
2022-09-12T06:59:32.996Z,14.16
2022-09-12T07:02:20.188Z,13.98
2022-09-12T07:05:07.794Z,16.62
2022-09-12T07:07:54.936Z,15.40
2022-09-12T07:10:41.988Z,14.83
2022-09-12T07:13:28.932Z,17.14
2022-09-12T07:16:19.685Z,16.13
2022-09-12T07:19:08.444Z,14.60
2022-09-12T07:21:58.701Z,16.90
2022-09-12T07:24:46.057Z,19.66
2022-09-12T07:27:33.265Z,18.17
2022-09-12T07:30:20.256Z,18.83
2022-09-12T07:33:07.188Z,17.96
2022-09-12T07:35:54.737Z,18.82
2022-09-12T07:38:42.607Z,20.73
2022-09-12T07:41:32.856Z,19.43
2022-09-12T07:44:19.774Z,16.97
2022-09-12T07:47:06.812Z,16.56
2022-09-12T07:49:53.841Z,20.20
2022-09-12T07:52:40.780Z,21.87
2022-09-12T07:55:27.639Z,21.76
2022-09-12T07:58:14.524Z,21.65
2022-09-12T08:01:05.902Z,20.95
2022-09-12T08:04:00.255Z,23.32
2022-09-12T08:06:47.177Z,22.87
2022-09-12T08:09:34.177Z,22.33
2022-09-12T08:12:21.232Z,21.47
2022-09-12T08:15:08.701Z,23.46
2022-09-12T08:17:55.716Z,23.59
2022-09-12T08:20:43.342Z,21.93
2022-09-12T08:23:30.649Z,20.92
2022-09-12T08:26:17.703Z,21.74
2022-09-12T08:29:05.081Z,22.83
2022-09-12T08:31:57.006Z,21.43
2022-09-12T08:34:44.199Z,21.95
2022-09-12T08:37:31.862Z,19.76
2022-09-12T08:40:19.065Z,19.54
2022-09-12T08:43:24.825Z,18.28
2022-09-12T08:46:22.675Z,17.33
2022-09-12T08:49:14.129Z,16.82
2022-09-12T08:52:21.491Z,17.13
2022-09-12T08:55:26.584Z,17.42
2022-09-12T08:58:20.288Z,17.15
2022-09-12T09:01:35.691Z,17.18
2022-09-12T09:04:34.474Z,17.42
2022-09-12T09:07:43.150Z,17.67
2022-09-12T09:10:35.166Z,17.37
2022-09-12T09:13:52.589Z,17.74
2022-09-12T09:16:45.180Z,18.89
2022-09-12T09:19:40.860Z,19.37
2022-09-12T09:22:45.794Z,21.92
2022-09-12T09:25:58.214Z,25.16
2022-09-12T09:28:52.687Z,21.41
2022-09-12T09:31:39.812Z,21.20
2022-09-12T09:34:31.622Z,22.74
2022-09-12T09:37:34.104Z,23.13
2022-09-12T09:40:46.462Z,22.75
2022-09-12T09:43:33.604Z,22.79
2022-09-12T09:46:20.613Z,22.57
2022-09-12T09:49:12.047Z,22.83
2022-09-12T09:52:01.012Z,23.82
2022-09-12T09:54:55.210Z,24.93
2022-09-12T09:57:44.952Z,23.10
2022-09-12T10:00:34.712Z,27.17
2022-09-12T10:03:54.116Z,24.94
2022-09-12T10:06:41.795Z,24.48
2022-09-12T10:09:36.381Z,23.66
2022-09-12T10:12:29.460Z,24.28
2022-09-12T10:15:26.596Z,24.07
2022-09-12T10:18:34.543Z,26.10
2022-09-12T10:21:43.583Z,24.64
2022-09-12T10:24:48.739Z,26.87
2022-09-12T10:27:36.133Z,25.23
2022-09-12T10:30:28.297Z,28.48
2022-09-12T10:33:15.653Z,25.73
2022-09-12T10:36:03.728Z,25.58
2022-09-12T10:38:53.999Z,25.83
2022-09-12T10:41:41.694Z,24.52
2022-09-12T10:44:34.503Z,23.38
2022-09-12T10:47:24.351Z,23.67
2022-09-12T10:50:43.538Z,24.36
2022-09-12T10:53:48.816Z,24.47
2022-09-12T10:57:00.114Z,25.52
2022-09-12T11:00:07.027Z,24.38
2022-09-12T11:03:15.384Z,24.06
2022-09-12T11:06:02.444Z,26.55
2022-09-12T11:09:15.533Z,27.90
2022-09-12T11:12:17.373Z,26.01
2022-09-12T11:15:11.086Z,25.31
2022-09-12T11:18:51.867Z,25.17
2022-09-12T11:22:11.744Z,26.97
2022-09-12T11:25:28.007Z,28.95
2022-09-12T11:28:42.095Z,25.87
2022-09-12T11:32:10.832Z,28.00
2022-09-12T11:35:24.544Z,25.27
2022-09-12T11:38:19.075Z,24.94
2022-09-12T11:41:11.650Z,27.11
2022-09-12T11:44:06.960Z,26.60
2022-09-12T11:46:54.108Z,28.03
2022-09-12T11:49:47.219Z,27.98
2022-09-12T11:52:38.927Z,28.85
2022-09-12T11:55:32.717Z,28.28
2022-09-12T11:58:25.506Z,27.08
2022-09-12T12:01:21.090Z,26.59
2022-09-12T12:04:17.967Z,27.94
2022-09-12T12:07:08.508Z,27.44
2022-09-12T12:09:57.017Z,28.28
2022-09-12T12:12:44.127Z,31.05
2022-09-12T12:15:31.904Z,26.99
2022-09-12T12:18:27.267Z,26.86
2022-09-12T12:21:32.150Z,26.87
2022-09-12T12:24:28.996Z,27.79
2022-09-12T12:27:50.384Z,28.33
2022-09-12T12:30:40.974Z,27.00
2022-09-12T12:33:27.857Z,26.89
2022-09-12T12:36:40.363Z,24.34
2022-09-12T12:39:33.300Z,26.58
2022-09-12T12:42:35.533Z,26.84
2022-09-12T12:45:25.422Z,23.91
2022-09-12T12:48:16.922Z,25.09
2022-09-12T12:51:51.600Z,29.11
2022-09-12T12:54:41.282Z,29.03
2022-09-12T12:57:56.369Z,28.58
2022-09-12T13:00:46.201Z,30.36
2022-09-12T13:03:34.494Z,29.94
2022-09-12T13:06:41.014Z,27.20
2022-09-12T13:09:40.449Z,26.10
2022-09-12T13:12:35.695Z,26.45
2022-09-12T13:15:51.332Z,26.54
2022-09-12T13:18:49.617Z,25.87
2022-09-12T13:21:36.526Z,26.72
2022-09-12T13:24:24.172Z,26.13
2022-09-12T13:27:18.479Z,24.89
2022-09-12T13:30:14.400Z,26.04
2022-09-12T13:33:27.275Z,26.61
2022-09-12T13:36:55.903Z,28.61
2022-09-12T13:39:49.870Z,27.39
2022-09-12T13:42:37.227Z,26.87
2022-09-12T13:45:27.581Z,26.77
2022-09-12T13:48:22.052Z,28.68
2022-09-12T13:51:22.925Z,27.66
2022-09-12T13:54:22.536Z,28.57
2022-09-12T13:57:27.460Z,27.58
2022-09-12T14:00:19.511Z,27.59
2022-09-12T14:03:54.753Z,28.77
2022-09-12T14:06:51.728Z,27.35
2022-09-12T14:09:43.976Z,26.19
2022-09-12T14:12:40.748Z,26.22
2022-09-12T14:15:31.449Z,26.00
2022-09-12T14:18:36.302Z,27.20
2022-09-12T14:21:30.464Z,26.34
2022-09-12T14:24:17.514Z,27.85
2022-09-12T14:27:04.967Z,27.34
2022-09-12T14:30:32.117Z,25.86
2022-09-12T14:33:20.926Z,27.59
2022-09-12T14:36:18.340Z,27.33
2022-09-12T14:39:15.181Z,27.59
2022-09-12T14:42:18.806Z,29.74
2022-09-12T14:45:17.207Z,28.37
2022-09-12T14:48:04.417Z,28.30
2022-09-12T14:50:53.358Z,29.23
2022-09-12T14:53:48.959Z,27.86
2022-09-12T14:56:57.543Z,27.84
2022-09-12T14:59:44.484Z,27.21
2022-09-12T15:02:31.818Z,26.02
2022-09-12T15:05:21.976Z,25.61
2022-09-12T15:08:15.969Z,25.67
2022-09-12T15:11:06.542Z,26.69
2022-09-12T15:13:53.653Z,26.38
2022-09-12T15:16:41.175Z,24.91
2022-09-12T15:19:28.982Z,24.46
2022-09-12T15:22:25.395Z,24.24
2022-09-12T15:25:13.672Z,24.93
2022-09-12T15:28:00.849Z,25.87
2022-09-12T15:30:50.547Z,25.01
2022-09-12T15:33:37.718Z,26.32
2022-09-12T15:36:25.647Z,25.04
2022-09-12T15:39:13.350Z,25.01
2022-09-12T15:42:00.356Z,24.78
2022-09-12T15:44:47.323Z,24.65
2022-09-12T15:47:34.378Z,25.18
2022-09-12T15:50:21.459Z,24.60
2022-09-12T15:53:15.364Z,23.74
2022-09-12T15:56:02.612Z,23.42
2022-09-12T15:58:58.830Z,24.18
2022-09-12T16:01:47.214Z,25.19
2022-09-12T16:04:34.565Z,24.11
2022-09-12T16:07:21.722Z,22.70
2022-09-12T16:10:13.719Z,22.41
2022-09-12T16:13:00.866Z,21.82
2022-09-12T16:15:48.198Z,21.87
2022-09-12T16:18:35.206Z,22.08
2022-09-12T16:21:22.145Z,22.16
2022-09-12T16:24:09.112Z,22.38
2022-09-12T16:27:00.900Z,21.91
2022-09-12T16:29:48.331Z,21.76
2022-09-12T16:32:35.759Z,21.87
2022-09-12T16:35:22.710Z,21.59
2022-09-12T16:38:09.929Z,21.18
2022-09-12T16:41:04.601Z,21.14
2022-09-12T16:43:52.132Z,20.92
2022-09-12T16:46:39.131Z,21.06
2022-09-12T16:49:26.075Z,21.05
2022-09-12T16:52:16.608Z,21.30
2022-09-12T16:55:03.764Z,21.19
2022-09-12T16:57:50.950Z,21.16
2022-09-12T17:00:38.255Z,21.14
2022-09-12T17:03:25.181Z,20.85
2022-09-12T17:06:14.469Z,20.71
2022-09-12T17:09:03.759Z,20.04
2022-09-12T17:11:52.670Z,20.15
2022-09-12T17:14:40.085Z,20.33
2022-09-12T17:17:27.069Z,20.22
2022-09-12T17:20:14.033Z,19.48
2022-09-12T17:23:01.067Z,18.97
2022-09-12T17:25:49.683Z,18.22
2022-09-12T17:28:37.633Z,18.15
2022-09-12T17:31:24.679Z,18.00
2022-09-12T17:34:14.639Z,17.95
2022-09-12T17:37:01.682Z,17.78
2022-09-12T17:39:49.103Z,17.59
2022-09-12T17:42:36.260Z,17.57
2022-09-12T17:45:23.387Z,17.21
2022-09-12T17:48:11.433Z,17.09
2022-09-12T17:50:59.344Z,16.85
2022-09-12T17:53:46.315Z,16.64
2022-09-12T17:56:35.347Z,16.64
2022-09-12T17:59:24.794Z,16.58
2022-09-12T18:02:13.245Z,16.35
2022-09-12T18:05:00.386Z,16.32
2022-09-12T18:07:47.302Z,16.11
2022-09-12T18:10:34.164Z,15.76
2022-09-12T18:13:21.246Z,16.07
2022-09-12T18:16:11.354Z,16.56
2022-09-12T18:19:01.459Z,16.76
2022-09-12T18:21:48.406Z,16.61
2022-09-12T18:24:36.081Z,16.84
2022-09-12T18:27:23.137Z,17.05
2022-09-12T18:30:21.141Z,17.07
2022-09-12T18:33:08.777Z,17.20
2022-09-12T18:35:55.848Z,17.01
2022-09-12T18:38:43.003Z,16.61
2022-09-12T18:41:30.656Z,16.29
2022-09-12T18:44:17.599Z,15.90
2022-09-12T18:47:04.760Z,15.59
2022-09-12T18:49:51.734Z,15.14
2022-09-12T18:52:38.771Z,14.86
2022-09-12T18:55:25.844Z,14.81
2022-09-12T18:58:12.778Z,14.76
2022-09-12T19:00:59.965Z,14.63
2022-09-12T19:03:47.451Z,14.43
2022-09-12T19:06:40.364Z,14.29
2022-09-12T19:09:27.352Z,14.08
2022-09-12T19:12:14.341Z,13.91
2022-09-12T19:15:01.311Z,13.88
2022-09-12T19:17:48.256Z,14.32
2022-09-12T19:20:37.355Z,14.35
2022-09-12T19:23:24.355Z,14.16
2022-09-12T19:26:13.902Z,13.98
2022-09-12T19:29:02.970Z,13.76
2022-09-12T19:31:49.998Z,13.83
2022-09-12T19:34:37.007Z,14.43
2022-09-12T19:37:24.220Z,14.23
2022-09-12T19:40:11.206Z,13.90
2022-09-12T19:42:58.143Z,13.59
2022-09-12T19:45:48.369Z,13.60
2022-09-12T19:48:35.707Z,13.54
2022-09-12T19:51:24.179Z,13.57
2022-09-12T19:54:11.261Z,13.28
2022-09-12T19:56:58.433Z,13.39
2022-09-12T19:59:46.187Z,13.27
2022-09-12T20:02:33.253Z,13.29
2022-09-12T20:05:20.969Z,13.53
2022-09-12T20:08:08.001Z,13.59
2022-09-12T20:10:57.195Z,13.60
2022-09-12T20:13:45.396Z,13.74
2022-09-12T20:16:33.432Z,13.89
2022-09-12T20:19:20.620Z,13.79
2022-09-12T20:22:07.558Z,14.32
2022-09-12T20:24:54.426Z,14.17
2022-09-12T20:27:41.306Z,14.33
2022-09-12T20:30:28.176Z,14.12
2022-09-12T20:33:15.073Z,13.54
2022-09-12T20:36:13.969Z,13.13
2022-09-12T20:39:02.574Z,12.96
2022-09-12T20:41:49.929Z,12.68
2022-09-12T20:44:36.890Z,12.39
2022-09-12T20:47:23.855Z,12.64
2022-09-12T20:50:12.326Z,12.89
2022-09-12T20:53:01.313Z,13.15
2022-09-12T20:55:54.259Z,13.07
2022-09-12T20:58:44.068Z,13.56
2022-09-12T21:01:32.348Z,13.22
2022-09-12T21:04:19.468Z,13.17
2022-09-12T21:07:06.570Z,12.98
2022-09-12T21:09:54.311Z,13.38
2022-09-12T21:12:41.222Z,13.25
2022-09-12T21:15:28.403Z,13.35
2022-09-12T21:18:15.535Z,13.42
2022-09-12T21:21:03.252Z,13.49
2022-09-12T21:23:55.308Z,13.60
2022-09-12T21:26:42.260Z,13.91
2022-09-12T21:29:29.111Z,14.06
2022-09-12T21:32:16.206Z,13.33
2022-09-12T21:35:05.238Z,13.35
2022-09-12T21:37:53.183Z,13.49
2022-09-12T21:40:40.182Z,13.47
2022-09-12T21:43:27.103Z,12.40
2022-09-12T21:46:14.111Z,12.13
2022-09-12T21:49:01.089Z,12.05
2022-09-12T21:51:48.066Z,12.13
2022-09-12T21:54:37.767Z,12.61
2022-09-12T21:57:24.744Z,13.27
2022-09-12T22:00:15.673Z,13.30
2022-09-12T22:03:04.954Z,13.07
2022-09-12T22:05:57.302Z,13.22
2022-09-12T22:08:44.252Z,13.58
2022-09-12T22:11:31.419Z,13.46
2022-09-12T22:14:18.405Z,13.60
2022-09-12T22:17:06.061Z,13.49
2022-09-12T22:19:52.912Z,13.72
2022-09-12T22:22:58.517Z,13.75
2022-09-12T22:25:45.606Z,13.55
2022-09-12T22:28:32.801Z,13.45
2022-09-12T22:31:20.026Z,13.51
2022-09-12T22:34:07.396Z,13.33
2022-09-12T22:36:54.320Z,12.98
2022-09-12T22:39:41.313Z,13.16
2022-09-12T22:42:31.220Z,13.29
2022-09-12T22:45:19.176Z,13.01
2022-09-12T22:48:09.031Z,13.01
2022-09-12T22:50:56.409Z,12.93
2022-09-12T22:53:43.422Z,13.06
2022-09-12T22:56:30.280Z,12.73
2022-09-12T22:59:17.362Z,12.69
2022-09-12T23:02:05.210Z,13.43
2022-09-12T23:04:52.454Z,12.92
2022-09-12T23:07:40.112Z,12.52
2022-09-12T23:10:27.139Z,12.43
2022-09-12T23:13:14.105Z,12.26
2022-09-12T23:16:03.542Z,12.39
2022-09-12T23:18:50.976Z,12.29
2022-09-12T23:21:37.849Z,12.44
2022-09-12T23:24:24.788Z,12.58
2022-09-12T23:27:11.715Z,12.69
2022-09-12T23:29:58.580Z,13.04
2022-09-12T23:32:45.463Z,13.16
2022-09-12T23:35:32.325Z,13.08
2022-09-12T23:38:19.221Z,13.15
2022-09-12T23:41:06.442Z,12.95
2022-09-12T23:43:53.791Z,12.72
2022-09-12T23:46:40.682Z,12.56
2022-09-12T23:49:27.573Z,12.50
2022-09-12T23:52:14.489Z,12.58
2022-09-12T23:55:01.404Z,12.61
2022-09-12T23:57:48.381Z,12.55
